createdAt,value
2019-03-03T00:02:04.752Z,30.65
2019-03-03T00:04:38.208Z,32.63
2019-03-03T00:07:11.791Z,27.62
2019-03-03T00:09:45.226Z,33.83
2019-03-03T00:12:19.090Z,30.77
2019-03-03T00:15:10.920Z,45.40
2019-03-03T00:18:02.010Z,30.97
2019-03-03T00:20:35.741Z,33.73
2019-03-03T00:23:09.718Z,27.80
2019-03-03T00:25:43.373Z,25.57
2019-03-03T00:28:24.005Z,26.52
2019-03-03T00:30:58.184Z,25.17
2019-03-03T00:33:32.279Z,25.50
2019-03-03T00:36:05.989Z,26.25
2019-03-03T00:38:41.207Z,24.55
2019-03-03T00:41:16.102Z,25.62
2019-03-03T00:43:57.954Z,31.02
2019-03-03T00:46:48.529Z,24.57
2019-03-03T00:49:30.557Z,29.00
2019-03-03T00:52:08.825Z,26.15
2019-03-03T00:55:00.056Z,26.25
2019-03-03T00:57:31.093Z,28.12
2019-03-03T01:00:17.078Z,26.80
2019-03-03T01:05:23.519Z,27.80
2019-03-03T01:08:06.437Z,27.45
2019-03-03T01:10:41.928Z,28.12
2019-03-03T01:13:26.797Z,26.15
2019-03-03T01:16:19.774Z,24.92
2019-03-03T01:18:56.129Z,22.27
2019-03-03T01:21:45.287Z,22.87
2019-03-03T01:24:19.400Z,23.90
2019-03-03T01:26:52.701Z,20.40
2019-03-03T01:29:25.075Z,20.20
2019-03-03T01:31:57.551Z,18.20
2019-03-03T01:34:30.458Z,18.87
2019-03-03T01:37:03.535Z,18.50
2019-03-03T01:39:36.447Z,18.55
2019-03-03T01:42:12.268Z,19.15
2019-03-03T01:44:44.475Z,17.62
2019-03-03T01:47:17.071Z,21.35
2019-03-03T01:49:49.407Z,19.52
2019-03-03T01:52:21.761Z,19.75
2019-03-03T01:54:55.486Z,20.43
2019-03-03T01:57:28.703Z,20.95
2019-03-03T02:00:03.959Z,21.97
2019-03-03T02:02:50.698Z,22.62
2019-03-03T02:05:23.360Z,24.02
2019-03-03T02:08:09.488Z,24.12
2019-03-03T02:10:41.967Z,23.83
2019-03-03T02:13:14.161Z,24.63
2019-03-03T02:15:46.270Z,24.18
2019-03-03T02:18:20.724Z,21.75
2019-03-03T02:20:53.906Z,22.50
2019-03-03T02:23:27.623Z,25.00
2019-03-03T02:25:59.793Z,22.50
2019-03-03T02:28:32.187Z,22.20
2019-03-03T02:31:04.952Z,18.90
2019-03-03T02:33:37.171Z,21.90
2019-03-03T02:36:16.608Z,25.20
2019-03-03T02:38:47.177Z,23.35
2019-03-03T02:41:19.855Z,22.52
2019-03-03T02:43:54.748Z,23.30
2019-03-03T02:46:25.743Z,23.73
2019-03-03T02:48:57.702Z,23.20
2019-03-03T02:51:29.715Z,22.10
2019-03-03T02:54:04.812Z,23.18
2019-03-03T02:56:37.171Z,23.83
2019-03-03T02:59:09.764Z,23.38
2019-03-03T03:01:45.050Z,25.30
2019-03-03T03:04:19.870Z,24.75
2019-03-03T03:06:56.508Z,24.02
2019-03-03T03:09:33.217Z,23.35
2019-03-03T03:12:15.188Z,21.73
2019-03-03T03:14:49.051Z,17.20
2019-03-03T03:17:31.729Z,19.75
2019-03-03T03:20:10.046Z,23.02
2019-03-03T03:22:45.056Z,21.77
2019-03-03T03:25:27.669Z,23.05
2019-03-03T03:28:16.320Z,22.40
2019-03-03T03:30:52.291Z,20.05
2019-03-03T03:33:26.852Z,21.33
2019-03-03T03:36:01.801Z,22.15
2019-03-03T03:38:43.105Z,22.07
2019-03-03T03:41:19.126Z,23.67
2019-03-03T03:44:02.099Z,21.02
2019-03-03T03:46:37.159Z,22.15
2019-03-03T03:49:11.794Z,17.77
2019-03-03T03:51:50.794Z,8.38
2019-03-03T03:54:25.214Z,16.85
2019-03-03T03:57:03.163Z,20.88
2019-03-03T03:59:42.444Z,17.92
2019-03-03T04:02:34.210Z,17.82
2019-03-03T04:05:10.941Z,20.30
2019-03-03T04:08:02.485Z,22.62
2019-03-03T04:10:54.950Z,24.72
2019-03-03T04:13:42.161Z,23.85
2019-03-03T04:16:35.417Z,26.23
2019-03-03T04:19:14.229Z,26.90
2019-03-03T04:21:49.564Z,25.23
2019-03-03T04:24:43.669Z,27.90
2019-03-03T04:27:24.803Z,15.25
2019-03-03T04:30:32.449Z,24.55
2019-03-03T04:39:18.273Z,27.65
2019-03-03T04:41:57.497Z,14.93
2019-03-03T04:44:44.626Z,13.70
2019-03-03T04:47:23.661Z,14.75
2019-03-03T04:50:00.283Z,28.05
2019-03-03T04:52:36.607Z,10.30
2019-03-03T04:55:15.758Z,34.13
2019-03-03T04:58:08.537Z,36.10
2019-03-03T05:00:48.537Z,40.83
2019-03-03T05:03:29.099Z,39.35
2019-03-03T05:06:22.057Z,32.50
2019-03-03T05:09:04.854Z,18.73
2019-03-03T05:12:17.914Z,9.98
2019-03-03T05:14:54.295Z,42.33
2019-03-03T05:17:34.131Z,7.10
2019-03-03T05:20:27.712Z,39.75
2019-03-03T05:23:01.338Z,37.95
2019-03-03T05:25:51.121Z,50.40
2019-03-03T05:28:31.163Z,35.98
2019-03-03T05:31:09.442Z,43.55
2019-03-03T05:33:42.501Z,15.35
2019-03-03T05:36:17.299Z,42.13
2019-03-03T05:38:52.100Z,26.57
2019-03-03T05:41:28.611Z,51.68
2019-03-03T05:44:02.134Z,33.98
2019-03-03T05:46:35.997Z,42.70
2019-03-03T05:49:22.094Z,15.72
2019-03-03T05:51:57.345Z,15.88
2019-03-03T05:54:37.417Z,42.45
2019-03-03T05:57:10.818Z,54.53
2019-03-03T05:59:44.539Z,53.50
2019-03-03T06:02:18.076Z,56.40
2019-03-03T06:04:53.715Z,58.50
2019-03-03T06:07:27.944Z,57.27
2019-03-03T06:10:01.593Z,51.90
2019-03-03T06:12:35.366Z,48.45
2019-03-03T06:15:16.571Z,55.45
2019-03-03T06:17:50.328Z,43.83
2019-03-03T06:20:25.389Z,52.15
2019-03-03T06:22:58.982Z,53.55
2019-03-03T06:25:34.680Z,55.35
2019-03-03T06:28:09.768Z,52.78
2019-03-03T06:30:44.597Z,53.83
2019-03-03T06:33:18.598Z,46.30
2019-03-03T06:35:52.849Z,19.42
2019-03-03T06:38:27.611Z,46.20
2019-03-03T06:41:01.768Z,36.90
2019-03-03T06:43:36.187Z,38.92
2019-03-03T06:46:09.648Z,37.33
2019-03-03T06:48:45.726Z,44.85
2019-03-03T06:51:18.754Z,42.13
2019-03-03T06:54:03.385Z,48.42
2019-03-03T06:56:32.785Z,46.77
2019-03-03T06:59:06.786Z,36.23
2019-03-03T07:01:40.754Z,44.58
2019-03-03T07:04:15.057Z,36.65
2019-03-03T07:06:49.500Z,25.37
2019-03-03T07:09:25.861Z,24.07
2019-03-03T07:12:02.041Z,43.85
2019-03-03T07:14:35.917Z,44.70
2019-03-03T07:17:11.510Z,43.35
2019-03-03T07:19:50.055Z,45.67
2019-03-03T07:22:23.568Z,38.75
2019-03-03T07:25:01.397Z,41.25
2019-03-03T07:27:44.572Z,41.53
2019-03-03T07:30:18.492Z,36.35
2019-03-03T07:33:08.678Z,39.98
2019-03-03T07:35:42.749Z,34.95
2019-03-03T07:38:17.163Z,33.18
2019-03-03T07:40:51.678Z,33.42
2019-03-03T07:43:25.037Z,36.15
2019-03-03T07:45:58.985Z,33.33
2019-03-03T07:48:32.407Z,35.63
2019-03-03T07:51:06.031Z,34.85
2019-03-03T07:53:40.201Z,32.58
2019-03-03T07:56:35.410Z,32.50
2019-03-03T07:59:09.355Z,28.47
2019-03-03T08:01:43.149Z,31.93
2019-03-03T08:04:20.590Z,30.17
2019-03-03T08:06:54.332Z,32.58
2019-03-03T08:09:27.642Z,29.70
2019-03-03T08:12:01.285Z,29.72
2019-03-03T08:14:37.749Z,30.37
2019-03-03T08:17:11.347Z,27.25
2019-03-03T08:19:44.692Z,28.38
2019-03-03T08:22:18.702Z,23.70
2019-03-03T08:24:53.694Z,28.92
2019-03-03T08:27:35.920Z,26.27
2019-03-03T08:30:15.318Z,24.80
2019-03-03T08:32:49.906Z,27.30
2019-03-03T08:35:24.887Z,22.62
2019-03-03T08:37:58.890Z,31.93
2019-03-03T08:40:33.581Z,33.65
2019-03-03T08:43:11.306Z,26.02
2019-03-03T08:46:04.947Z,29.77
2019-03-03T08:48:47.043Z,29.90
2019-03-03T08:51:25.446Z,31.65
2019-03-03T08:54:17.295Z,22.85
2019-03-03T08:56:52.758Z,29.40
2019-03-03T08:59:44.767Z,29.95
2019-03-03T09:02:35.550Z,20.68
2019-03-03T09:05:11.109Z,27.87
2019-03-03T09:07:49.259Z,23.25
2019-03-03T09:10:25.534Z,12.05
2019-03-03T09:13:18.553Z,32.70
2019-03-03T09:15:52.764Z,30.92
2019-03-03T09:18:34.862Z,31.15
2019-03-03T09:21:19.163Z,31.65
2019-03-03T09:23:53.822Z,32.95
2019-03-03T09:26:31.360Z,33.28
2019-03-03T09:29:18.228Z,32.25
2019-03-03T09:32:09.161Z,30.95
2019-03-03T09:34:47.484Z,27.22
2019-03-03T09:37:22.371Z,30.17
2019-03-03T09:40:09.133Z,29.27
2019-03-03T09:42:52.595Z,30.60
2019-03-03T09:45:48.891Z,26.05
2019-03-03T09:48:29.452Z,30.48
2019-03-03T09:51:07.658Z,35.83
2019-03-03T09:53:45.974Z,35.63
2019-03-03T09:56:33.705Z,34.10
2019-03-03T09:59:11.206Z,29.12
2019-03-03T10:01:53.586Z,28.73
2019-03-03T10:04:51.137Z,21.80
2019-03-03T10:07:43.861Z,27.70
2019-03-03T10:10:39.445Z,16.97
2019-03-03T10:13:42.492Z,31.02
2019-03-03T10:16:38.979Z,33.98
2019-03-03T10:19:26.710Z,27.82
2019-03-03T10:22:22.379Z,33.28
2019-03-03T10:25:00.332Z,36.28
2019-03-03T10:27:37.761Z,39.48
2019-03-03T10:30:23.105Z,33.33
2019-03-03T10:33:06.135Z,24.60
2019-03-03T10:35:52.338Z,40.70
2019-03-03T10:38:47.952Z,33.40
2019-03-03T10:41:50.597Z,35.65
2019-03-03T10:44:28.647Z,40.73
2019-03-03T10:47:20.257Z,44.48
2019-03-03T10:49:57.985Z,37.03
2019-03-03T10:52:48.062Z,47.85
2019-03-03T10:55:29.428Z,51.77
2019-03-03T10:58:19.415Z,53.00
2019-03-03T11:01:13.087Z,51.85
2019-03-03T11:03:48.396Z,46.02
2019-03-03T11:06:39.447Z,37.80
2019-03-03T11:09:47.852Z,50.25
2019-03-03T11:12:22.989Z,42.80
2019-03-03T11:15:28.551Z,53.80
2019-03-03T11:18:16.705Z,43.02
2019-03-03T11:21:01.197Z,29.95
2019-03-03T11:23:47.880Z,33.02
2019-03-03T11:26:26.119Z,39.20
2019-03-03T11:29:20.849Z,33.02
2019-03-03T11:32:14.511Z,30.23
2019-03-03T11:34:52.351Z,36.95
2019-03-03T11:37:32.197Z,37.83
2019-03-03T11:40:16.906Z,27.58
2019-03-03T11:42:55.891Z,34.67
2019-03-03T11:45:35.299Z,44.70
2019-03-03T11:48:10.878Z,40.40
2019-03-03T11:50:52.775Z,43.35
2019-03-03T11:53:44.216Z,44.27
2019-03-03T11:56:31.212Z,43.30
2019-03-03T11:59:21.819Z,39.63
2019-03-03T12:02:12.209Z,38.08
2019-03-03T12:05:00.690Z,16.95
2019-03-03T12:07:36.792Z,35.17
2019-03-03T12:13:03.752Z,34.23
2019-03-03T12:15:41.798Z,37.20
2019-03-03T12:18:24.723Z,35.13
2019-03-03T12:21:16.236Z,31.85
2019-03-03T12:23:51.333Z,36.93
2019-03-03T12:26:32.354Z,34.92
2019-03-03T12:32:45.455Z,32.98
2019-03-03T12:35:01.044Z,34.53
2019-03-03T12:37:39.395Z,35.43
2019-03-03T12:40:22.333Z,19.20
2019-03-03T12:45:36.655Z,36.63
2019-03-03T12:48:20.842Z,34.70
2019-03-03T12:51:13.083Z,27.82
2019-03-03T12:53:48.728Z,36.88
2019-03-03T12:56:29.728Z,37.38
2019-03-03T12:59:20.212Z,34.35
2019-03-03T13:02:48.707Z,35.08
2019-03-03T13:07:46.987Z,34.85
2019-03-03T13:10:25.612Z,34.20
2019-03-03T13:13:00.535Z,33.02
2019-03-03T13:15:51.559Z,33.15
2019-03-03T13:18:38.626Z,32.65
2019-03-03T13:21:16.274Z,28.15
2019-03-03T13:23:51.664Z,33.28
2019-03-03T13:26:29.944Z,16.25
2019-03-03T13:29:07.724Z,33.25
2019-03-03T13:31:42.792Z,36.53
2019-03-03T13:34:28.347Z,34.85
2019-03-03T13:37:38.917Z,25.85
2019-03-03T13:40:17.633Z,31.97
2019-03-03T13:42:52.984Z,18.23
2019-03-03T13:45:27.231Z,34.53
2019-03-03T13:48:01.024Z,32.05
2019-03-03T13:50:35.884Z,34.33
2019-03-03T13:53:09.427Z,30.85
2019-03-03T13:55:44.144Z,38.20
2019-03-03T13:58:17.885Z,30.85
2019-03-03T14:00:51.809Z,38.50
2019-03-03T14:03:25.681Z,36.10
2019-03-03T14:05:59.353Z,19.82
2019-03-03T14:08:32.803Z,33.28
2019-03-03T14:11:29.458Z,35.35
2019-03-03T14:14:38.431Z,33.80
2019-03-03T14:17:12.166Z,34.13
2019-03-03T14:19:45.312Z,28.52
2019-03-03T14:22:19.906Z,31.68
2019-03-03T14:24:53.676Z,27.00
2019-03-03T14:27:40.456Z,27.48
2019-03-03T14:30:21.568Z,21.85
2019-03-03T14:32:55.604Z,25.10
2019-03-03T14:35:29.079Z,14.07
2019-03-03T14:38:05.776Z,15.20
2019-03-03T14:40:40.689Z,11.15
2019-03-03T14:43:14.643Z,13.20
2019-03-03T14:45:48.344Z,18.90
2019-03-03T14:48:24.178Z,17.60
2019-03-03T14:51:05.213Z,15.23
2019-03-03T14:53:43.125Z,17.75
2019-03-03T14:56:17.658Z,17.35
2019-03-03T14:58:53.761Z,16.77
2019-03-03T15:01:29.576Z,18.12
2019-03-03T15:04:03.619Z,17.05
2019-03-03T15:06:37.409Z,12.58
2019-03-03T15:09:15.486Z,18.60
2019-03-03T15:11:48.940Z,17.27
2019-03-03T15:14:31.001Z,19.80
2019-03-03T15:17:06.406Z,18.87
2019-03-03T15:19:39.979Z,20.57
2019-03-03T15:22:13.656Z,17.27
2019-03-03T15:24:47.849Z,19.07
2019-03-03T15:27:23.148Z,19.92
2019-03-03T15:29:57.049Z,19.30
2019-03-03T15:32:30.612Z,17.60
2019-03-03T15:35:05.081Z,17.60
2019-03-03T15:37:41.644Z,18.48
2019-03-03T15:40:27.042Z,16.15
2019-03-03T15:42:59.993Z,15.03
2019-03-03T15:45:34.219Z,21.85
2019-03-03T15:48:07.610Z,23.42
2019-03-03T15:50:45.315Z,21.80
2019-03-03T15:53:18.954Z,24.82
2019-03-03T15:55:53.405Z,19.57
2019-03-03T15:58:29.235Z,12.43
2019-03-03T16:01:04.024Z,5.40
2019-03-03T16:03:38.606Z,15.53
2019-03-03T16:06:15.093Z,9.88
2019-03-03T16:08:49.914Z,6.58
2019-03-03T16:11:27.856Z,9.33
2019-03-03T16:14:03.489Z,10.20
2019-03-03T16:16:38.856Z,19.87
2019-03-03T16:19:13.659Z,10.30
2019-03-03T16:21:52.103Z,10.23
2019-03-03T16:24:28.354Z,8.03
2019-03-03T16:27:06.165Z,16.82
2019-03-03T16:29:40.604Z,24.30
2019-03-03T16:32:14.831Z,9.75
2019-03-03T16:34:48.838Z,17.37
2019-03-03T16:37:23.324Z,23.90
2019-03-03T16:39:59.909Z,21.57
2019-03-03T16:42:34.337Z,14.83
2019-03-03T16:45:10.116Z,17.65
2019-03-03T16:47:44.097Z,10.38
2019-03-03T16:50:21.276Z,7.58
2019-03-03T16:52:55.699Z,16.50
2019-03-03T16:55:29.386Z,9.28
2019-03-03T16:58:04.791Z,12.18
2019-03-03T17:00:38.625Z,13.78
2019-03-03T17:03:12.265Z,9.68
2019-03-03T17:05:45.733Z,11.55
2019-03-03T17:08:19.340Z,20.52
2019-03-03T17:10:53.629Z,8.98
2019-03-03T17:13:27.088Z,14.78
2019-03-03T17:16:00.544Z,9.40
2019-03-03T17:18:35.576Z,11.75
2019-03-03T17:21:22.106Z,8.30
2019-03-03T17:23:56.349Z,7.00
2019-03-03T17:26:30.466Z,18.45
2019-03-03T17:29:05.387Z,9.68
2019-03-03T17:31:39.102Z,9.23
2019-03-03T17:34:13.271Z,18.30
2019-03-03T17:36:47.250Z,9.63
2019-03-03T17:39:21.461Z,16.75
2019-03-03T17:41:55.155Z,15.50
2019-03-03T17:44:29.594Z,9.95
2019-03-03T17:47:03.514Z,13.75
2019-03-03T17:49:37.192Z,13.55
2019-03-03T17:52:12.499Z,20.77
2019-03-03T17:54:45.936Z,18.05
2019-03-03T17:57:19.660Z,20.72
2019-03-03T17:59:53.044Z,13.38
2019-03-03T18:02:26.655Z,16.52
2019-03-03T18:05:00.436Z,17.35
2019-03-03T18:07:34.188Z,13.40
2019-03-03T18:10:09.769Z,9.85
2019-03-03T18:12:43.778Z,15.53
2019-03-03T18:15:20.169Z,16.10
2019-03-03T18:18:13.969Z,15.88
2019-03-03T18:20:47.653Z,11.35
2019-03-03T18:23:21.227Z,20.57
2019-03-03T18:25:55.117Z,18.85
2019-03-03T18:28:29.282Z,12.88
2019-03-03T18:31:03.150Z,8.88
2019-03-03T18:33:37.437Z,9.55
2019-03-03T18:36:11.422Z,8.35
2019-03-03T18:38:45.113Z,8.63
2019-03-03T18:41:18.826Z,7.15
2019-03-03T18:43:52.510Z,15.45
2019-03-03T18:46:25.919Z,11.10
2019-03-03T18:48:59.739Z,17.60
2019-03-03T18:51:33.327Z,9.18
2019-03-03T18:54:07.239Z,18.27
2019-03-03T18:56:40.647Z,17.02
2019-03-03T18:59:14.444Z,14.53
2019-03-03T19:01:51.788Z,19.95
2019-03-03T19:04:25.530Z,18.85
2019-03-03T19:06:58.948Z,8.15
2019-03-03T19:09:32.734Z,17.45
2019-03-03T19:12:06.043Z,9.93
2019-03-03T19:14:39.525Z,15.55
2019-03-03T19:17:13.217Z,18.37
2019-03-03T19:19:47.256Z,7.00
2019-03-03T19:22:20.962Z,11.80
2019-03-03T19:24:54.472Z,17.55
2019-03-03T19:27:28.181Z,14.07
2019-03-03T19:30:01.949Z,23.25
2019-03-03T19:32:35.302Z,23.42
2019-03-03T19:35:10.806Z,20.30
2019-03-03T19:37:44.834Z,25.12
2019-03-03T19:40:19.733Z,23.80
2019-03-03T19:42:53.332Z,18.45
2019-03-03T19:45:35.268Z,23.38
2019-03-03T19:50:41.649Z,20.20
2019-03-03T19:53:15.327Z,6.80
2019-03-03T19:55:49.259Z,5.80
2019-03-03T19:58:22.620Z,6.22
2019-03-03T20:00:56.580Z,21.42
2019-03-03T20:03:30.357Z,15.40
2019-03-03T20:06:04.259Z,18.05
2019-03-03T20:08:37.691Z,20.85
2019-03-03T20:11:11.587Z,19.77
2019-03-03T20:13:44.857Z,15.08
2019-03-03T20:16:29.850Z,22.30
2019-03-03T20:19:03.853Z,11.45
2019-03-03T20:21:38.450Z,10.32
2019-03-03T20:24:12.901Z,10.63
2019-03-03T20:26:46.904Z,23.12
2019-03-03T20:29:22.179Z,11.78
2019-03-03T20:31:55.813Z,15.70
2019-03-03T20:34:29.568Z,18.67
2019-03-03T20:37:03.493Z,22.73
2019-03-03T20:39:37.296Z,22.70
2019-03-03T20:42:12.549Z,16.05
2019-03-03T20:44:46.062Z,15.90
2019-03-03T20:47:19.851Z,19.57
2019-03-03T20:49:53.149Z,11.85
2019-03-03T20:52:28.771Z,8.50
2019-03-03T20:55:01.687Z,17.50
2019-03-03T20:57:36.606Z,20.48
2019-03-03T21:00:14.764Z,7.42
2019-03-03T21:02:48.308Z,8.13
2019-03-03T21:05:21.639Z,11.53
2019-03-03T21:07:55.730Z,10.38
2019-03-03T21:10:33.753Z,14.38
2019-03-03T21:13:07.552Z,10.60
2019-03-03T21:15:40.793Z,18.45
2019-03-03T21:18:26.623Z,9.95
2019-03-03T21:21:00.434Z,19.07
2019-03-03T21:23:34.255Z,17.90
2019-03-03T21:26:08.277Z,22.80
2019-03-03T21:28:42.103Z,17.27
2019-03-03T21:31:15.897Z,14.68
2019-03-03T21:33:50.075Z,7.12
2019-03-03T21:36:23.934Z,24.27
2019-03-03T21:38:57.191Z,22.15
2019-03-03T21:41:30.932Z,22.77
2019-03-03T21:44:04.233Z,29.42
2019-03-03T21:46:38.261Z,21.52
2019-03-03T21:49:11.826Z,21.80
2019-03-03T21:51:45.623Z,20.92
2019-03-03T21:54:19.070Z,22.73
2019-03-03T21:56:52.625Z,25.75
2019-03-03T21:59:27.030Z,25.70
2019-03-03T22:02:01.416Z,22.20
2019-03-03T22:04:36.691Z,21.33
2019-03-03T22:07:13.855Z,26.45
2019-03-03T22:09:46.773Z,26.37
2019-03-03T22:12:20.802Z,26.48
2019-03-03T22:14:54.481Z,23.87
2019-03-03T22:17:28.348Z,25.82
2019-03-03T22:20:02.314Z,24.77
2019-03-03T22:22:36.024Z,25.17
2019-03-03T22:25:11.439Z,25.85
2019-03-03T22:27:44.938Z,23.62
2019-03-03T22:30:19.757Z,23.73
2019-03-03T22:32:53.853Z,23.92
2019-03-03T22:35:28.112Z,24.30
2019-03-03T22:38:02.377Z,23.12
2019-03-03T22:40:36.236Z,24.20
2019-03-03T22:43:30.147Z,22.87
2019-03-03T22:46:06.276Z,24.25
2019-03-03T22:48:40.275Z,24.20
2019-03-03T22:51:14.765Z,23.90
2019-03-03T22:53:48.470Z,23.07
2019-03-03T22:56:21.819Z,25.10
2019-03-03T22:59:02.589Z,26.42
2019-03-03T23:01:36.839Z,27.45
2019-03-03T23:04:21.756Z,27.32
2019-03-03T23:06:59.909Z,27.80
2019-03-03T23:12:49.216Z,29.90
2019-03-03T23:15:40.268Z,27.50
2019-03-03T23:18:43.938Z,29.60
2019-03-03T23:21:19.842Z,25.02
2019-03-03T23:24:17.202Z,23.70
2019-03-03T23:26:50.470Z,31.48
2019-03-03T23:29:23.997Z,32.63
2019-03-03T23:31:57.601Z,29.92
2019-03-03T23:34:31.922Z,31.42
2019-03-03T23:37:05.334Z,29.60
2019-03-03T23:39:39.457Z,28.35
2019-03-03T23:42:13.139Z,28.23
2019-03-03T23:44:47.178Z,23.85
2019-03-03T23:47:20.468Z,28.12
2019-03-03T23:50:14.233Z,17.15
2019-03-03T23:52:50.732Z,26.57
2019-03-03T23:55:24.013Z,14.05
2019-03-03T23:57:59.438Z,23.77
